Time;durP1;ratioP1;P1;durP2;ratioP2;P2;SDS_P1;SDS_P2;PMS_P1;PMS_P2;Temp;Humidity;BMP_temperature;BMP_pressure;BME280_temperature;BME280_humidity;BME280_pressure;Samples;Min_cycle;Max_cycle;Signal;HPM_P1;HPM_P2
2023/12/17 00:02:29;;;;;;;31.20;23.20;;;8.30;78.40;;;;;;6283433;28;20244;-80
2023/12/17 00:05:32;;;;;;;27.10;21.90;;;8.20;78.70;;;;;;6276090;28;20245;-77
2023/12/17 00:08:37;;;;;;;27.43;21.27;;;8.10;78.70;;;;;;6272124;28;20239;-79
2023/12/17 00:11:41;;;;;;;26.50;21.10;;;8.10;79.00;;;;;;6287877;28;20233;-80
2023/12/17 00:14:45;;;;;;;29.00;20.63;;;8.10;78.90;;;;;;6285491;28;20744;-79
2023/12/17 00:17:49;;;;;;;30.30;20.67;;;8.20;78.90;;;;;;6282840;28;20233;-78
2023/12/17 00:20:52;;;;;;;28.60;20.97;;;8.20;78.90;;;;;;6290543;28;20229;-79
2023/12/17 00:23:57;;;;;;;25.50;21.20;;;8.20;78.80;;;;;;6276167;28;20292;-80
2023/12/17 00:27:00;;;;;;;27.00;21.23;;;8.20;78.70;;;;;;6279401;28;20229;-83
2023/12/17 00:30:04;;;;;;;27.43;20.77;;;8.30;78.60;;;;;;6278084;28;20237;-80
2023/12/17 00:33:08;;;;;;;25.43;19.73;;;8.30;78.40;;;;;;6279988;28;20701;-78
2023/12/17 00:36:11;;;;;;;27.27;20.07;;;8.30;78.60;;;;;;6272236;28;20303;-78
2023/12/17 00:39:16;;;;;;;26.43;20.43;;;8.20;78.70;;;;;;6279676;28;20765;-79
2023/12/17 00:42:19;;;;;;;29.47;19.70;;;8.20;78.80;;;;;;6286510;28;20245;-79
2023/12/17 00:45:22;;;;;;;25.50;19.53;;;8.20;78.90;;;;;;6278063;28;20248;-80
2023/12/17 00:48:26;;;;;;;26.13;19.93;;;8.20;78.80;;;;;;6277217;28;20236;-80
2023/12/17 00:51:29;;;;;;;24.20;19.83;;;8.30;78.70;;;;;;6278980;28;20241;-81
2023/12/17 00:54:33;;;;;;;27.60;21.00;;;8.30;78.70;;;;;;6276168;28;20253;-80
2023/12/17 00:57:36;;;;;;;26.10;19.73;;;8.20;78.90;;;;;;6286698;28;20233;-78
2023/12/17 01:00:40;;;;;;;27.93;20.27;;;8.20;79.00;;;;;;6276083;28;20237;-79
2023/12/17 01:03:56;;;;;;;25.40;19.90;;;8.20;79.00;;;;;;6290419;28;20244;-79
2023/12/17 01:07:00;;;;;;;25.50;19.97;;;8.20;78.80;;;;;;6286479;28;20252;-79
2023/12/17 01:10:05;;;;;;;26.17;20.27;;;8.20;79.00;;;;;;6269710;28;20233;-80
2023/12/17 01:13:08;;;;;;;24.43;19.47;;;8.30;78.90;;;;;;6287515;28;20241;-80
2023/12/17 01:16:11;;;;;;;24.73;19.07;;;8.30;78.90;;;;;;6289163;28;20233;-79
2023/12/17 01:19:14;;;;;;;26.97;20.90;;;8.40;78.70;;;;;;6300102;28;20244;-80
2023/12/17 01:22:17;;;;;;;24.83;20.03;;;8.30;78.70;;;;;;6292109;28;20236;-78
2023/12/17 01:25:22;;;;;;;25.07;20.03;;;8.30;78.80;;;;;;6285621;28;20237;-79
2023/12/17 01:28:25;;;;;;;25.23;20.60;;;8.30;79.00;;;;;;6277991;28;20236;-80
2023/12/17 01:31:28;;;;;;;23.83;19.80;;;8.30;79.10;;;;;;6277346;28;20337;-80
2023/12/17 01:34:31;;;;;;;27.10;20.80;;;8.30;79.20;;;;;;6277169;28;20931;-81
2023/12/17 01:37:34;;;;;;;24.20;19.60;;;8.30;79.00;;;;;;6285809;28;20237;-80
2023/12/17 01:40:39;;;;;;;25.90;20.37;;;8.30;79.10;;;;;;6286269;28;20323;-84
2023/12/17 01:43:42;;;;;;;27.67;21.20;;;8.30;79.00;;;;;;6277451;28;20689;-78
2023/12/17 01:46:45;;;;;;;24.17;20.87;;;8.30;79.10;;;;;;6278570;28;20491;-79
2023/12/17 01:49:49;;;;;;;29.03;20.80;;;8.40;79.00;;;;;;6286371;28;20256;-79
2023/12/17 01:52:52;;;;;;;23.73;19.70;;;8.40;78.80;;;;;;6280309;28;20233;-79
2023/12/17 01:55:57;;;;;;;27.10;19.77;;;8.40;78.90;;;;;;6290482;28;20241;-79
2023/12/17 01:59:00;;;;;;;26.17;19.73;;;8.30;79.10;;;;;;6290857;28;20269;-79
2023/12/17 02:02:03;;;;;;;26.27;20.17;;;8.40;79.10;;;;;;6287203;28;20317;-80
2023/12/17 02:05:07;;;;;;;25.63;19.37;;;8.40;79.00;;;;;;6287627;28;20325;-82
2023/12/17 02:08:11;;;;;;;23.73;19.87;;;8.40;79.00;;;;;;6275625;28;20229;-80
2023/12/17 02:11:15;;;;;;;26.57;21.33;;;8.40;79.00;;;;;;6281662;28;20286;-81
2023/12/17 02:14:18;;;;;;;26.00;20.37;;;8.40;79.00;;;;;;6289144;28;20816;-78
2023/12/17 02:17:27;;;;;;;25.17;20.47;;;8.30;79.20;;;;;;6285280;28;20334;-79
2023/12/17 02:20:30;;;;;;;24.07;20.03;;;8.40;79.00;;;;;;6289552;28;20245;-81
2023/12/17 02:23:34;;;;;;;25.43;20.43;;;8.40;79.10;;;;;;6273817;28;20245;-80
2023/12/17 02:26:40;;;;;;;27.20;19.97;;;8.50;79.00;;;;;;6276780;28;20347;-80
2023/12/17 02:29:44;;;;;;;22.50;19.70;;;8.40;79.00;;;;;;6288327;28;20423;-80
2023/12/17 02:32:47;;;;;;;22.23;19.83;;;8.40;79.20;;;;;;6275800;28;20229;-79
2023/12/17 02:35:50;;;;;;;26.27;19.83;;;8.40;79.20;;;;;;6291140;28;20240;-81
2023/12/17 02:38:54;;;;;;;26.07;20.27;;;8.40;79.30;;;;;;6292150;28;20298;-81
2023/12/17 02:41:58;;;;;;;26.10;20.40;;;8.40;79.30;;;;;;6254873;28;20234;-79
2023/12/17 02:45:02;;;;;;;25.77;21.17;;;8.40;79.30;;;;;;6290453;28;20237;-79
2023/12/17 02:48:05;;;;;;;24.80;21.63;;;8.40;79.40;;;;;;6281525;28;20752;-79
2023/12/17 02:51:08;;;;;;;23.60;20.27;;;8.40;79.40;;;;;;6280811;28;20232;-80
2023/12/17 02:54:13;;;;;;;22.93;19.73;;;8.50;79.30;;;;;;6287729;28;20320;-77
2023/12/17 02:57:16;;;;;;;21.67;19.30;;;8.40;79.30;;;;;;6280996;28;20921;-80
2023/12/17 03:00:19;;;;;;;28.97;19.53;;;8.40;79.50;;;;;;6271877;28;20268;-80
2023/12/17 03:03:22;;;;;;;28.20;20.40;;;8.40;79.60;;;;;;6286990;28;20758;-80
2023/12/17 03:06:27;;;;;;;25.37;20.30;;;8.40;79.60;;;;;;6290842;28;20719;-79
2023/12/17 03:09:32;;;;;;;22.77;19.33;;;8.40;79.50;;;;;;6288349;28;20822;-80
2023/12/17 03:12:35;;;;;;;23.63;19.83;;;8.50;79.50;;;;;;6288531;28;20324;-81
2023/12/17 03:15:38;;;;;;;22.50;18.33;;;8.50;79.50;;;;;;6254189;28;20249;-81
2023/12/17 03:18:41;;;;;;;26.30;19.30;;;8.50;79.30;;;;;;6289517;28;20306;-81
2023/12/17 03:21:45;;;;;;;23.23;20.13;;;8.50;79.30;;;;;;6263470;28;20229;-80
2023/12/17 03:24:49;;;;;;;21.23;18.97;;;8.50;79.40;;;;;;6260457;28;20245;-80
2023/12/17 03:27:52;;;;;;;22.97;19.50;;;8.40;79.60;;;;;;6280780;28;20854;-80
2023/12/17 03:30:55;;;;;;;23.73;18.60;;;8.50;79.60;;;;;;6281605;28;20395;-81
2023/12/17 03:33:58;;;;;;;23.40;19.33;;;8.40;79.80;;;;;;6276817;28;20244;-80
2023/12/17 03:37:01;;;;;;;23.07;19.77;;;8.40;79.90;;;;;;6287827;28;20728;-83
2023/12/17 03:40:07;;;;;;;24.37;20.57;;;8.40;80.20;;;;;;6284534;28;20278;-80
2023/12/17 03:43:12;;;;;;;26.33;20.37;;;8.40;80.20;;;;;;6282576;28;20304;-80
2023/12/17 03:46:15;;;;;;;21.13;18.93;;;8.40;80.00;;;;;;6278126;28;20321;-82
2023/12/17 03:49:18;;;;;;;25.67;19.50;;;8.50;80.00;;;;;;6286939;28;20892;-80
2023/12/17 03:52:21;;;;;;;23.03;18.80;;;8.40;80.10;;;;;;6285292;28;20335;-79
2023/12/17 03:55:25;;;;;;;21.93;19.30;;;8.40;80.30;;;;;;6280901;28;20257;-80
2023/12/17 03:58:30;;;;;;;22.17;18.33;;;8.40;80.20;;;;;;6284648;28;20241;-79
2023/12/17 04:01:34;;;;;;;25.00;19.77;;;8.50;80.00;;;;;;6268754;28;20291;-80
2023/12/17 04:04:37;;;;;;;22.50;19.77;;;8.50;80.00;;;;;;6277308;28;20870;-81
2023/12/17 04:07:40;;;;;;;20.97;18.80;;;8.40;80.10;;;;;;6270632;28;20233;-81
2023/12/17 04:10:45;;;;;;;22.13;19.07;;;8.50;80.10;;;;;;6287744;28;20324;-80
2023/12/17 04:13:48;;;;;;;21.67;19.10;;;8.50;80.00;;;;;;6287980;28;20241;-78
2023/12/17 04:16:51;;;;;;;25.87;19.70;;;8.50;80.10;;;;;;6280077;28;20380;-80
2023/12/17 04:19:54;;;;;;;22.80;19.97;;;8.50;80.20;;;;;;6287298;28;20329;-81
2023/12/17 04:22:57;;;;;;;20.73;18.17;;;8.50;80.30;;;;;;6284679;28;20241;-80
2023/12/17 04:26:02;;;;;;;23.47;19.20;;;8.50;80.30;;;;;;6279242;28;20229;-79
2023/12/17 04:29:07;;;;;;;22.57;18.77;;;8.50;80.30;;;;;;6286316;28;20244;-80
2023/12/17 04:32:11;;;;;;;22.83;18.67;;;8.50;80.50;;;;;;6269586;28;20237;-79
2023/12/17 04:35:14;;;;;;;22.63;18.77;;;8.50;80.40;;;;;;6284273;28;20252;-80
2023/12/17 04:38:17;;;;;;;22.83;18.70;;;8.50;80.40;;;;;;6279486;28;20236;-79
2023/12/17 04:41:22;;;;;;;24.20;19.67;;;8.50;80.50;;;;;;6274646;28;20241;-80
2023/12/17 04:44:25;;;;;;;21.80;19.07;;;8.50;80.50;;;;;;6272817;28;20265;-80
2023/12/17 04:47:30;;;;;;;23.07;19.13;;;8.50;80.50;;;;;;6273562;28;20293;-81
2023/12/17 04:50:33;;;;;;;21.70;19.33;;;8.50;80.30;;;;;;6272423;28;20229;-80
2023/12/17 04:53:36;;;;;;;21.37;19.20;;;8.50;80.20;;;;;;6286006;28;20314;-79
2023/12/17 04:56:40;;;;;;;24.43;19.90;;;8.50;80.10;;;;;;6274664;28;20701;-81
2023/12/17 04:59:44;;;;;;;23.83;19.93;;;8.50;80.30;;;;;;6280596;28;20249;-79
2023/12/17 05:02:47;;;;;;;21.73;19.27;;;8.50;80.40;;;;;;6285703;28;20237;-81
2023/12/17 05:05:50;;;;;;;21.43;18.23;;;8.50;80.40;;;;;;6285032;28;20237;-80
2023/12/17 05:08:53;;;;;;;23.70;19.93;;;8.50;80.50;;;;;;6281310;28;20263;-80
2023/12/17 05:11:58;;;;;;;23.90;19.27;;;8.50;80.30;;;;;;6275712;28;20237;-79
2023/12/17 05:15:02;;;;;;;20.33;18.13;;;8.50;80.30;;;;;;6281248;28;20250;-78
2023/12/17 05:18:06;;;;;;;20.47;17.90;;;8.50;80.10;;;;;;6276595;28;20237;-79
2023/12/17 05:21:09;;;;;;;22.20;19.17;;;8.50;80.10;;;;;;6273417;28;20256;-80
2023/12/17 05:24:12;;;;;;;20.77;17.50;;;8.50;80.00;;;;;;6280057;28;20249;-79
2023/12/17 05:27:17;;;;;;;22.90;17.63;;;8.50;80.00;;;;;;6285737;28;20306;-78
2023/12/17 05:30:22;;;;;;;20.90;17.97;;;8.50;80.10;;;;;;6284314;28;20263;-78
2023/12/17 05:33:28;;;;;;;21.07;18.87;;;8.50;80.30;;;;;;6273080;28;20244;-79
2023/12/17 05:36:31;;;;;;;22.17;17.53;;;8.50;80.20;;;;;;6275212;28;20237;-79
2023/12/17 05:39:34;;;;;;;23.63;19.10;;;8.50;80.10;;;;;;6283680;28;20981;-80
2023/12/17 05:42:39;;;;;;;19.97;17.07;;;8.40;80.20;;;;;;6283368;28;20225;-79
2023/12/17 05:45:42;;;;;;;22.17;18.90;;;8.40;80.10;;;;;;6285654;28;20320;-79
2023/12/17 05:48:59;;;;;;;21.17;17.93;;;8.40;80.30;;;;;;6272619;28;20244;-79
2023/12/17 05:52:03;;;;;;;22.50;19.23;;;8.40;80.30;;;;;;6285027;28;20261;-79
2023/12/17 05:55:10;;;;;;;24.70;17.50;;;8.40;80.40;;;;;;6280694;28;20245;-80
2023/12/17 05:58:14;;;;;;;20.07;17.97;;;8.30;80.50;;;;;;6277129;28;20789;-80
2023/12/17 06:01:17;;;;;;;20.17;17.20;;;8.40;80.20;;;;;;6280562;28;20257;-79
2023/12/17 06:04:21;;;;;;;19.23;17.23;;;8.40;80.20;;;;;;6274623;28;20244;-79
2023/12/17 06:07:24;;;;;;;22.33;17.83;;;8.40;80.10;;;;;;6277582;28;20294;-81
2023/12/17 06:10:27;;;;;;;18.27;16.37;;;8.40;80.10;;;;;;6285187;28;20321;-80
2023/12/17 06:13:33;;;;;;;19.07;17.07;;;8.40;80.00;;;;;;6277493;28;20310;-77
2023/12/17 06:16:41;;;;;;;20.10;16.70;;;8.40;79.80;;;;;;6271600;28;20249;-78
2023/12/17 06:19:45;;;;;;;17.90;16.20;;;8.40;79.70;;;;;;6271219;28;20721;-79
2023/12/17 06:22:49;;;;;;;19.73;17.63;;;8.40;79.80;;;;;;6276963;28;20238;-78
2023/12/17 06:25:52;;;;;;;17.10;15.50;;;8.50;79.70;;;;;;6276704;28;20645;-80
2023/12/17 06:28:57;;;;;;;18.53;16.53;;;8.50;79.60;;;;;;6280795;28;20229;-79
2023/12/17 06:32:04;;;;;;;19.63;16.37;;;8.50;79.50;;;;;;6270746;28;20256;-77
2023/12/17 06:35:10;;;;;;;18.47;16.70;;;8.50;79.50;;;;;;6284152;28;20252;-79
2023/12/17 06:38:14;;;;;;;16.43;14.83;;;8.50;79.40;;;;;;6287150;28;20229;-79
2023/12/17 06:41:17;;;;;;;16.20;14.50;;;8.50;79.40;;;;;;6286923;28;20318;-79
2023/12/17 06:44:22;;;;;;;17.60;15.80;;;8.50;79.40;;;;;;6282065;28;20241;-79
2023/12/17 06:47:25;;;;;;;17.27;15.47;;;8.40;79.20;;;;;;6284312;28;20355;-78
2023/12/17 06:50:31;;;;;;;17.53;14.97;;;8.40;79.30;;;;;;6289123;28;20241;-76
2023/12/17 06:53:34;;;;;;;17.70;16.00;;;8.50;79.00;;;;;;6294344;28;20322;-79
2023/12/17 06:56:37;;;;;;;17.40;15.47;;;8.50;78.80;;;;;;6277856;28;20841;-79
2023/12/17 06:59:42;;;;;;;16.30;14.57;;;8.50;78.90;;;;;;6287185;28;20233;-76
2023/12/17 07:02:45;;;;;;;15.90;14.30;;;8.50;78.80;;;;;;6280740;28;20248;-75
2023/12/17 07:05:48;;;;;;;16.27;14.57;;;8.50;78.70;;;;;;6286206;28;20723;-78
2023/12/17 07:08:52;;;;;;;16.87;15.13;;;8.50;78.60;;;;;;6287993;28;20320;-74
2023/12/17 07:11:55;;;;;;;16.40;14.57;;;8.60;78.50;;;;;;6289063;28;20238;-77
2023/12/17 07:14:59;;;;;;;16.70;14.60;;;8.60;78.50;;;;;;6280248;28;20237;-75
2023/12/17 07:18:02;;;;;;;15.73;14.30;;;8.60;78.30;;;;;;6284411;28;20245;-79
2023/12/17 07:21:06;;;;;;;16.53;14.93;;;8.60;78.40;;;;;;6276027;28;20282;-77
2023/12/17 07:24:09;;;;;;;15.50;13.90;;;8.60;78.20;;;;;;6283153;28;20255;-75
2023/12/17 07:27:14;;;;;;;14.77;13.10;;;8.60;78.00;;;;;;6275533;28;20237;-74
2023/12/17 07:30:20;;;;;;;14.97;13.33;;;8.60;78.00;;;;;;6278776;28;20236;-76
2023/12/17 07:33:24;;;;;;;14.43;13.13;;;8.60;77.80;;;;;;6276336;28;20237;-75
2023/12/17 07:36:27;;;;;;;14.00;12.63;;;8.60;77.90;;;;;;6273579;28;20351;-78
2023/12/17 07:39:30;;;;;;;14.97;13.57;;;8.60;77.80;;;;;;6286787;28;20237;-76
2023/12/17 07:42:34;;;;;;;14.83;13.37;;;8.60;77.60;;;;;;6281609;28;20248;-76
2023/12/17 07:45:39;;;;;;;14.77;13.37;;;8.60;77.60;;;;;;6279955;28;20624;-76
2023/12/17 07:48:45;;;;;;;13.83;12.53;;;8.60;77.50;;;;;;6285940;28;20341;-77
2023/12/17 07:51:49;;;;;;;13.63;12.33;;;8.60;77.30;;;;;;6275697;28;20311;-75
2023/12/17 07:54:53;;;;;;;12.70;11.60;;;8.60;77.40;;;;;;6283642;28;20233;-76
2023/12/17 07:57:56;;;;;;;12.23;11.03;;;8.60;77.20;;;;;;6283336;28;20237;-78
2023/12/17 08:01:00;;;;;;;12.37;11.37;;;8.70;77.10;;;;;;6266232;28;20321;-77
2023/12/17 08:04:04;;;;;;;12.53;11.43;;;8.80;76.90;;;;;;6283404;28;20241;-77
2023/12/17 08:07:07;;;;;;;12.87;11.77;;;8.80;76.70;;;;;;6279918;28;20241;-76
2023/12/17 08:10:11;;;;;;;12.60;11.53;;;8.70;76.90;;;;;;6275932;28;20233;-75
2023/12/17 08:13:15;;;;;;;12.53;11.43;;;8.80;76.60;;;;;;6283752;28;20232;-75
2023/12/17 08:16:22;;;;;;;12.47;11.47;;;8.80;76.30;;;;;;6285654;28;20242;-75
2023/12/17 08:19:25;;;;;;;13.10;12.00;;;8.80;76.40;;;;;;6276503;28;20723;-77
2023/12/17 08:22:28;;;;;;;12.50;11.30;;;8.90;76.20;;;;;;6274037;28;20245;-75
2023/12/17 08:25:33;;;;;;;11.83;10.90;;;8.90;76.10;;;;;;6266503;28;20923;-77
2023/12/17 08:28:36;;;;;;;11.97;10.93;;;8.80;76.30;;;;;;6284698;28;20233;-77
2023/12/17 08:31:44;;;;;;;12.17;11.20;;;8.90;76.10;;;;;;6286040;28;20390;-76
2023/12/17 08:34:48;;;;;;;11.30;10.40;;;8.90;76.00;;;;;;6285102;28;20226;-77
2023/12/17 08:37:51;;;;;;;13.03;11.90;;;8.80;76.10;;;;;;6278130;28;20238;-78
2023/12/17 08:40:54;;;;;;;11.67;10.77;;;8.80;76.00;;;;;;6275643;28;20361;-76
2023/12/17 08:43:57;;;;;;;10.83;9.90;;;8.90;75.70;;;;;;6285869;28;20237;-77
2023/12/17 08:47:02;;;;;;;12.40;11.40;;;8.90;75.70;;;;;;6284445;28;20819;-76
2023/12/17 08:50:07;;;;;;;12.23;11.20;;;8.90;75.70;;;;;;6283270;28;20318;-76
2023/12/17 08:53:10;;;;;;;11.80;10.80;;;8.90;75.60;;;;;;6284962;28;20236;-76
2023/12/17 08:56:13;;;;;;;11.27;10.27;;;8.90;75.60;;;;;;6278585;28;20767;-77
2023/12/17 08:59:16;;;;;;;11.57;10.60;;;8.90;75.30;;;;;;6283959;28;20239;-76
2023/12/17 09:02:20;;;;;;;11.23;10.40;;;8.90;75.50;;;;;;6284353;28;20264;-77
2023/12/17 09:05:23;;;;;;;11.90;10.77;;;8.90;75.60;;;;;;6272291;28;20301;-77
2023/12/17 09:08:26;;;;;;;12.60;11.60;;;8.90;75.70;;;;;;6281903;28;20232;-76
2023/12/17 09:11:32;;;;;;;10.83;10.03;;;8.90;75.60;;;;;;6280515;28;20236;-77
2023/12/17 09:14:35;;;;;;;11.07;10.13;;;8.90;75.60;;;;;;6284613;28;20249;-77
2023/12/17 09:17:42;;;;;;;11.60;10.57;;;8.90;75.30;;;;;;6280467;28;20866;-77
2023/12/17 09:20:46;;;;;;;11.17;10.37;;;9.00;75.00;;;;;;6279188;28;20252;-76
2023/12/17 09:23:49;;;;;;;11.03;10.13;;;9.00;75.20;;;;;;6288121;28;20252;-78
2023/12/17 09:26:52;;;;;;;11.47;10.57;;;9.00;75.00;;;;;;6286306;28;20310;-77
2023/12/17 09:29:55;;;;;;;11.10;10.27;;;9.00;74.80;;;;;;6282889;28;20244;-76
2023/12/17 09:33:00;;;;;;;10.27;9.57;;;9.00;74.90;;;;;;6280534;28;20796;-75
2023/12/17 09:36:03;;;;;;;11.13;10.23;;;9.00;74.70;;;;;;6275138;28;20241;-75
2023/12/17 09:39:06;;;;;;;10.97;10.10;;;9.10;74.50;;;;;;6277110;28;20240;-76
2023/12/17 09:42:10;;;;;;;11.43;10.47;;;9.00;74.70;;;;;;6285149;28;20241;-78
2023/12/17 09:45:14;;;;;;;11.20;10.20;;;9.00;74.60;;;;;;6286124;28;20241;-76
2023/12/17 09:48:20;;;;;;;11.73;10.63;;;9.00;74.70;;;;;;6281063;28;20230;-77
2023/12/17 09:51:25;;;;;;;10.73;9.90;;;9.10;74.50;;;;;;6285285;28;20233;-76
2023/12/17 09:54:28;;;;;;;11.30;10.30;;;9.00;74.40;;;;;;6270040;28;20238;-78
2023/12/17 09:57:31;;;;;;;11.53;10.40;;;9.10;74.40;;;;;;6284509;28;20230;-76
2023/12/17 10:00:35;;;;;;;11.17;10.27;;;9.00;74.50;;;;;;6273757;28;20712;-77
2023/12/17 10:03:39;;;;;;;10.90;10.00;;;9.20;74.40;;;;;;6278207;28;20229;-76
2023/12/17 10:06:42;;;;;;;11.10;9.83;;;9.20;74.40;;;;;;6277663;28;20240;-75
2023/12/17 10:09:45;;;;;;;10.50;9.73;;;9.20;74.20;;;;;;6283381;28;20248;-75
2023/12/17 10:12:49;;;;;;;10.17;9.47;;;9.20;74.20;;;;;;6285019;28;20229;-77
2023/12/17 10:15:54;;;;;;;10.33;9.60;;;9.20;73.80;;;;;;6282354;28;20229;-76
2023/12/17 10:18:58;;;;;;;10.47;9.67;;;9.20;73.90;;;;;;6281753;28;20980;-76
2023/12/17 10:22:07;;;;;;;9.73;9.00;;;9.20;73.80;;;;;;6281398;28;20271;-76
2023/12/17 10:25:23;;;;;;;10.60;9.80;;;9.20;73.90;;;;;;6272519;28;20233;-76
2023/12/17 10:28:32;;;;;;;9.57;8.97;;;9.20;74.00;;;;;;6277646;28;20264;-77
2023/12/17 10:31:38;;;;;;;10.03;9.07;;;9.20;74.00;;;;;;6286948;28;20317;-76
2023/12/17 10:34:43;;;;;;;10.10;9.27;;;9.20;73.80;;;;;;6280643;28;20335;-76
2023/12/17 10:37:47;;;;;;;10.10;9.30;;;9.20;73.90;;;;;;6281054;28;20237;-77
2023/12/17 10:40:51;;;;;;;9.80;9.10;;;9.20;73.90;;;;;;6282053;28;20261;-77
2023/12/17 10:43:55;;;;;;;9.33;8.63;;;9.20;74.00;;;;;;6281195;28;20253;-78
2023/12/17 10:47:03;;;;;;;9.63;8.93;;;9.20;73.80;;;;;;6281503;28;20335;-75
2023/12/17 10:50:09;;;;;;;10.03;9.23;;;9.20;73.80;;;;;;6274321;28;20306;-77
2023/12/17 10:53:13;;;;;;;9.67;9.07;;;9.20;73.90;;;;;;6282275;28;20256;-75
2023/12/17 10:56:17;;;;;;;9.27;8.67;;;9.20;73.90;;;;;;6276581;28;20241;-77
2023/12/17 10:59:25;;;;;;;10.47;9.67;;;9.20;73.90;;;;;;6278268;28;20851;-76
2023/12/17 11:02:42;;;;;;;9.27;8.67;;;9.20;73.80;;;;;;6279845;28;20741;-77
2023/12/17 11:05:58;;;;;;;10.20;9.47;;;9.20;73.80;;;;;;6283257;28;20303;-76
2023/12/17 11:09:02;;;;;;;9.70;9.00;;;9.20;73.80;;;;;;6284813;28;20234;-78
2023/12/17 11:12:08;;;;;;;9.50;8.90;;;9.20;74.00;;;;;;6276676;28;20251;-77
2023/12/17 11:15:12;;;;;;;11.03;10.23;;;9.20;74.00;;;;;;6282381;28;20245;-75
2023/12/17 11:18:16;;;;;;;9.83;9.17;;;9.20;73.90;;;;;;6277667;28;20405;-74
2023/12/17 11:21:23;;;;;;;10.30;9.60;;;9.20;73.80;;;;;;6275397;28;20332;-77
2023/12/17 11:24:27;;;;;;;10.37;9.53;;;9.20;73.80;;;;;;6266404;28;20679;-77
2023/12/17 11:27:32;;;;;;;10.53;9.73;;;9.20;73.60;;;;;;6283083;28;20290;-77
2023/12/17 11:30:38;;;;;;;10.73;9.77;;;9.20;73.50;;;;;;6287275;28;20237;-78
2023/12/17 11:33:42;;;;;;;10.17;9.47;;;9.20;73.60;;;;;;6275459;28;20767;-77
2023/12/17 11:36:49;;;;;;;9.30;8.60;;;9.30;73.40;;;;;;6284177;28;20658;-77
2023/12/17 11:39:53;;;;;;;10.63;9.83;;;9.40;73.30;;;;;;6273178;28;20230;-77
2023/12/17 11:42:58;;;;;;;10.97;10.17;;;9.40;72.80;;;;;;6272272;28;20244;-76
2023/12/17 11:46:01;;;;;;;9.47;8.67;;;9.40;73.00;;;;;;6281996;28;20245;-76
2023/12/17 11:49:04;;;;;;;10.07;9.37;;;9.40;73.00;;;;;;6278399;28;21506;-79
2023/12/17 11:52:14;;;;;;;10.50;9.80;;;9.20;73.10;;;;;;6277119;28;20242;-77
2023/12/17 11:55:19;;;;;;;10.33;9.43;;;9.30;72.90;;;;;;6280616;28;20236;-78
2023/12/17 11:58:23;;;;;;;10.40;9.67;;;9.40;72.70;;;;;;6282192;28;20320;-77
2023/12/17 12:01:27;;;;;;;9.27;8.63;;;9.40;72.60;;;;;;6287452;28;20240;-76
2023/12/17 12:04:39;;;;;;;9.93;9.23;;;9.40;72.70;;;;;;6281685;28;20325;-76
2023/12/17 12:07:44;;;;;;;9.13;8.53;;;9.40;72.40;;;;;;6280929;28;20257;-78
2023/12/17 12:10:49;;;;;;;10.00;9.30;;;9.40;72.30;;;;;;6284165;28;20241;-75
2023/12/17 12:13:55;;;;;;;10.10;9.40;;;9.50;72.30;;;;;;6276119;28;20244;-78
2023/12/17 12:16:59;;;;;;;9.03;8.43;;;9.50;72.20;;;;;;6283882;28;20238;-76
2023/12/17 12:20:02;;;;;;;9.67;9.07;;;9.40;72.40;;;;;;6279234;28;20229;-76
2023/12/17 12:23:13;;;;;;;9.47;8.70;;;9.40;72.70;;;;;;6263617;28;20498;-79
2023/12/17 12:26:16;;;;;;;9.20;8.50;;;9.40;72.60;;;;;;6278610;28;20254;-77
2023/12/17 12:29:19;;;;;;;10.03;9.23;;;9.40;72.50;;;;;;6274860;28;20740;-79
2023/12/17 12:32:29;;;;;;;9.67;8.97;;;9.40;72.40;;;;;;6281877;28;20278;-76
2023/12/17 12:35:33;;;;;;;9.70;9.07;;;9.40;72.40;;;;;;6273958;28;20326;-77
2023/12/17 12:38:37;;;;;;;9.63;8.93;;;9.40;72.30;;;;;;6272105;28;20297;-76
2023/12/17 12:41:45;;;;;;;9.83;9.23;;;9.40;72.30;;;;;;6283203;28;20240;-78
2023/12/17 12:44:49;;;;;;;10.13;9.43;;;9.40;72.20;;;;;;6283557;28;20666;-79
2023/12/17 12:47:52;;;;;;;9.57;8.87;;;9.40;72.30;;;;;;6269395;28;20229;-79
2023/12/17 12:50:56;;;;;;;9.83;9.13;;;9.40;72.30;;;;;;6282538;28;20902;-78
2023/12/17 12:54:02;;;;;;;9.03;8.40;;;9.40;72.20;;;;;;6274637;28;20243;-78
2023/12/17 12:57:05;;;;;;;9.40;8.80;;;9.50;72.10;;;;;;6281214;28;20446;-77
2023/12/17 13:00:09;;;;;;;8.80;8.23;;;9.40;72.00;;;;;;6275814;28;20265;-77
2023/12/17 13:03:13;;;;;;;9.83;9.13;;;9.40;71.90;;;;;;6285140;28;20729;-78
2023/12/17 13:06:16;;;;;;;9.77;9.07;;;9.40;72.10;;;;;;6283824;28;20225;-78
2023/12/17 13:09:21;;;;;;;10.30;9.50;;;9.40;72.40;;;;;;6282016;28;20229;-76
2023/12/17 13:12:24;;;;;;;9.63;8.83;;;9.40;72.10;;;;;;6283016;28;20302;-77
2023/12/17 13:15:27;;;;;;;9.83;9.03;;;9.40;72.10;;;;;;6276663;28;20229;-78
2023/12/17 13:18:34;;;;;;;8.60;8.10;;;9.40;72.00;;;;;;6276950;28;20336;-78
2023/12/17 13:21:37;;;;;;;8.40;7.93;;;9.50;72.00;;;;;;6284374;28;20314;-79
2023/12/17 13:24:42;;;;;;;9.13;8.33;;;9.40;72.10;;;;;;6279324;28;20302;-78
2023/12/17 13:27:45;;;;;;;8.90;8.20;;;9.40;72.20;;;;;;6279815;28;20710;-78
2023/12/17 13:30:48;;;;;;;9.70;8.93;;;9.30;72.30;;;;;;6278283;28;20237;-77
2023/12/17 13:33:51;;;;;;;8.17;7.53;;;9.30;72.40;;;;;;6269709;28;20234;-79
2023/12/17 13:36:54;;;;;;;8.80;8.13;;;9.20;72.20;;;;;;6265216;28;20233;-78
2023/12/17 13:39:59;;;;;;;8.90;8.20;;;9.20;72.60;;;;;;6267807;28;20835;-78
2023/12/17 13:43:02;;;;;;;9.27;8.47;;;9.20;72.50;;;;;;6276047;28;20225;-80
2023/12/17 13:46:06;;;;;;;8.87;8.27;;;9.20;72.60;;;;;;6272293;28;20286;-79
2023/12/17 13:49:09;;;;;;;8.57;7.87;;;9.20;72.40;;;;;;6285315;28;20229;-79
2023/12/17 13:52:13;;;;;;;9.13;8.47;;;9.20;72.70;;;;;;6282462;28;20233;-79
2023/12/17 13:55:18;;;;;;;8.70;8.20;;;9.20;72.40;;;;;;6280588;28;20236;-79
2023/12/17 13:58:21;;;;;;;9.00;8.23;;;9.20;72.50;;;;;;6271133;28;20326;-78
2023/12/17 14:01:26;;;;;;;8.10;7.57;;;9.20;72.40;;;;;;6285865;28;20779;-79
2023/12/17 14:04:30;;;;;;;7.77;7.27;;;9.10;72.30;;;;;;6289990;28;20731;-78
2023/12/17 14:07:33;;;;;;;8.37;7.87;;;9.10;72.30;;;;;;6283480;28;20237;-79
2023/12/17 14:10:37;;;;;;;8.57;7.97;;;9.00;72.50;;;;;;6277846;28;20568;-77
2023/12/17 14:13:40;;;;;;;8.47;7.67;;;9.00;72.60;;;;;;6281021;28;20321;-78
2023/12/17 14:16:43;;;;;;;9.10;8.40;;;9.00;72.50;;;;;;6283803;28;20388;-79
2023/12/17 14:19:46;;;;;;;8.47;7.77;;;9.00;72.70;;;;;;6288000;28;20240;-77
2023/12/17 14:22:49;;;;;;;7.97;7.27;;;8.90;73.00;;;;;;6287019;28;20240;-78
2023/12/17 14:25:54;;;;;;;8.30;7.70;;;8.90;73.10;;;;;;6289630;28;20244;-78
2023/12/17 14:28:57;;;;;;;9.27;8.53;;;8.90;73.00;;;;;;6284230;28;20229;-77
2023/12/17 14:32:02;;;;;;;8.43;7.93;;;8.90;73.00;;;;;;6271797;28;20310;-76
2023/12/17 14:35:06;;;;;;;9.43;8.83;;;8.90;72.80;;;;;;6283794;28;20247;-78
2023/12/17 14:38:10;;;;;;;8.27;7.73;;;8.80;73.10;;;;;;6263601;28;20234;-79
2023/12/17 14:41:15;;;;;;;7.80;7.30;;;8.80;73.00;;;;;;6287985;28;20305;-80
2023/12/17 14:44:18;;;;;;;8.23;7.63;;;8.90;72.50;;;;;;6278045;28;20240;-78
2023/12/17 14:47:21;;;;;;;7.90;7.40;;;8.90;72.40;;;;;;6282132;28;20241;-76
2023/12/17 14:50:26;;;;;;;7.47;6.90;;;8.70;72.90;;;;;;6287733;28;20324;-77
2023/12/17 14:53:29;;;;;;;7.87;7.33;;;8.60;73.00;;;;;;6286476;28;20401;-80
2023/12/17 14:56:34;;;;;;;8.23;7.57;;;8.60;73.00;;;;;;6276189;28;20316;-78
2023/12/17 14:59:37;;;;;;;7.97;7.47;;;8.60;73.20;;;;;;6285153;28;20229;-77
2023/12/17 15:02:40;;;;;;;8.17;7.67;;;8.60;73.20;;;;;;6285436;28;20241;-79
2023/12/17 15:05:43;;;;;;;9.03;8.33;;;8.40;73.70;;;;;;6282165;28;20237;-78
2023/12/17 15:08:46;;;;;;;10.10;8.80;;;8.30;74.10;;;;;;6286517;28;20236;-78
2023/12/17 15:11:51;;;;;;;9.23;8.37;;;8.30;74.20;;;;;;6286887;28;20743;-77
2023/12/17 15:14:54;;;;;;;9.53;8.73;;;8.30;74.20;;;;;;6272322;28;20709;-76
2023/12/17 15:18:00;;;;;;;9.47;8.73;;;8.30;74.20;;;;;;6281443;28;21707;-78
2023/12/17 15:21:04;;;;;;;8.80;8.20;;;8.10;74.80;;;;;;6274785;28;20685;-78
2023/12/17 15:24:07;;;;;;;9.60;8.90;;;8.20;74.80;;;;;;6284576;28;20244;-79
2023/12/17 15:27:12;;;;;;;10.27;9.37;;;8.20;74.70;;;;;;6278019;28;20326;-77
2023/12/17 15:30:16;;;;;;;9.67;8.87;;;8.10;74.80;;;;;;6277017;28;20760;-76
2023/12/17 15:33:19;;;;;;;9.47;8.70;;;8.00;75.30;;;;;;6284573;28;20229;-78
2023/12/17 15:36:23;;;;;;;9.83;9.03;;;8.00;75.40;;;;;;6280858;28;20233;-77
2023/12/17 15:39:26;;;;;;;9.57;8.67;;;7.90;75.50;;;;;;6281203;28;20709;-78
2023/12/17 15:42:31;;;;;;;10.57;9.67;;;8.00;75.40;;;;;;6279834;28;20819;-78
2023/12/17 15:45:34;;;;;;;9.20;8.40;;;7.80;75.50;;;;;;6285439;28;20625;-78
2023/12/17 15:48:38;;;;;;;9.60;9.00;;;7.80;75.80;;;;;;6280237;28;20716;-79
2023/12/17 15:51:41;;;;;;;9.50;8.80;;;7.80;75.90;;;;;;6286557;28;20233;-79
2023/12/17 15:54:44;;;;;;;9.47;8.77;;;7.80;76.00;;;;;;6277190;28;20260;-78